Flight Track Log - Related Links

Times and Time Zones

All times are in EDT time to prevent confusion due to time zone crossing. See the N896CT flight status page for this flight to view local times or setup timezone preferences in your user account.

Time Position Orientation Groundspeed Altitude Reporting Facility
EDT Latitude Longitude Course Direction KTS MPH feet Rate Location/Type
Tue 11:07:59 AM 31.1208 -83.8731 353° North 149 171 2,000  Level Jacksonville Center
Tue 11:08:43 AM 31.1542 -83.8781 353° North 148 170 2,000 692 Level Jacksonville Center
Tue 11:09:43 AM 31.1939 -83.8736 North 128 147 3,200 950 Climbing Jacksonville Center
Tue 11:10:43 AM 31.2358 -83.8767 356° North 154 177 3,900 650 Climbing Jacksonville Center
Tue 11:11:43 AM 31.2858 -83.8797 357° North 188 216 4,500 874 Climbing Jacksonville Center
Tue 11:12:26 AM 31.3150 -83.8822 356° North 169 194 5,400 1,215 Climbing Jacksonville Center
Tue 11:13:02 AM 31.3422 -83.8825 360° North 164 189 6,100 1,247 Climbing Jacksonville Center
Tue 11:13:43 AM 31.3903 -83.8806 North 199 229 7,000 535 Climbing Jacksonville Center
Tue 11:14:43 AM 31.4467 -83.8814 359° North 199 229 7,000  Level Jacksonville Center
Tue 11:15:43 AM 31.4758 -83.8839 356° North 140 161 7,000  Level Jacksonville Center
Tue 11:16:43 AM 31.5300 -83.8869 357° North 167 192 7,000  Level Jacksonville Center
Tue 11:17:43 AM 31.5864 -83.8875 360° North 186 214 7,000  Level Jacksonville Center
Tue 11:18:43 AM 31.6428 -83.8906 357° North 197 227 7,000  Level Jacksonville Center
Tue 11:19:43 AM 31.7033 -83.8914 359° North 197 227 7,000  Level Jacksonville Center
Tue 11:20:43 AM 31.7597 -83.8944 357° North 197 227 7,000  Level Jacksonville Center
Tue 11:21:43 AM 31.8181 -83.8975 357° North 197 227 7,000  Level Jacksonville Center
Tue 11:23:36 AM 31.9333 -83.9000 359° North 206 237 7,000  Level Atlanta TRACON
Tue 11:24:30 AM 31.9833 -83.9000 360° North 203 234 7,000  Level Atlanta TRACON
Tue 11:25:30 AM 32.0333 -83.9000 360° North 204 235 7,000  Level Atlanta TRACON
Tue 11:26:24 AM 32.0833 -83.9000 360° North 206 237 7,000  Level Atlanta TRACON
Tue 11:27:30 AM 32.1500 -83.9000 360° North 204 235 7,000 850 Level Atlanta TRACON
Tue 11:28:24 AM 32.2000 -83.9000 360° North 169 194 8,700 1,632 Climbing Atlanta TRACON
Tue 11:29:24 AM 32.2333 -83.9000 360° North 156 180 10,100 650 Climbing Atlanta TRACON
Tue 11:30:24 AM 32.2833 -83.9167 344° North 197 227 10,000 300 Descending Atlanta TRACON
Tue 11:31:24 AM 32.3500 -83.9167 360° North 188 216 10,700 650 Climbing Atlanta TRACON
Tue 11:32:24 AM 32.4000 -83.9167 360° North 178 205 11,300 122 Climbing Atlanta TRACON
Tue 11:33:52 AM 32.4644 -83.9158 North 179 206 11,000 -122 Descending Atlanta Center
Tue 11:34:52 AM 32.5250 -83.9181 358° North 194 223 11,000  Level Atlanta Center
Tue 11:35:52 AM 32.5836 -83.9206 358° North 199 229 11,000  Level Atlanta Center
Tue 11:36:52 AM 32.6419 -83.9231 358° North 204 235 11,000  Level Atlanta Center
Tue 11:37:52 AM 32.7006 -83.9228 360° North 204 235 11,000  Level Atlanta Center
Tue 11:38:52 AM 32.7608 -83.9253 358° North 209 241 11,000  Level Atlanta Center
Tue 11:39:52 AM 32.8194 -83.9300 356° North 209 241 11,000  Level Atlanta Center
Tue 11:40:52 AM 32.8758 -83.9325 358° North 209 241 11,000  Level Atlanta Center
Tue 11:41:52 AM 32.9364 -83.9300 North 209 241 11,000 -200 Level Atlanta Center
Tue 11:42:52 AM 32.9928 -83.9322 358° North 209 241 10,600 -650 Descending Atlanta Center
Tue 11:43:52 AM 33.0511 -83.9372 356° North 209 241 9,700 -900 Descending Atlanta Center
Tue 11:44:52 AM 33.1136 -83.9172 15° North 209 241 8,800 -850 Descending Atlanta Center
Tue 11:45:52 AM 33.1700 -83.8950 18° North 209 241 8,000 -750 Descending Atlanta Center
Tue 11:46:52 AM 33.2264 -83.8775 15° North 209 241 7,300 -500 Descending Atlanta Center
Tue 11:47:52 AM 33.2806 -83.8575 17° North 204 235 7,000 -150 Descending Atlanta Center
Tue 11:48:52 AM 33.3308 -83.8425 14° North 204 235 7,000  Level Atlanta Center
Tue 11:49:52 AM 33.3828 -83.8250 16° North 204 235 7,000 -300 Level Atlanta Center
Tue 11:50:52 AM 33.4372 -83.8072 15° North 199 229 6,400 -603 Descending Atlanta Center
Tue 11:53:01 AM 33.5500 -83.7833 10° North 183 211 5,100 -459 Descending Atlanta TRACON
Tue 11:53:55 AM 33.6000 -83.8000 344° North 181 208 5,000 -50 Descending Atlanta TRACON
Tue 11:55:01 AM 33.6500 -83.8333 331° Northwest 174 200 5,000  Level Atlanta TRACON
Tue 11:56:01 AM 33.7000 -83.8167 15° North 194 223 5,000 -200 Level Atlanta TRACON
Tue 11:57:01 AM 33.7333 -83.7833 40° Northeast 193 222 4,600 -500 Descending Atlanta TRACON
Tue 11:58:01 AM 33.7833 -83.7500 29° Northeast 191 220 4,000 -300 Descending Atlanta TRACON
Tue 11:59:01 AM 33.8333 -83.7167 29° Northeast 185 213 4,000  Level Atlanta TRACON
Tue 11:59:55 AM 33.8833 -83.7000 15° North 188 216 4,000  Level Atlanta TRACON
Tue 12:00:55 PM 33.9167 -83.7000 360° North 170 196 4,000  Level Atlanta TRACON
Tue 12:01:55 PM 33.9667 -83.7000 360° North 166 191 4,000  Level Atlanta TRACON
Tue 12:02:55 PM 34.0167 -83.7000 360° North 170 196 4,000 -50 Level Atlanta TRACON
Tue 12:03:55 PM 34.0500 -83.7167 337° Northwest 170 196 3,900 -250 Descending Atlanta TRACON
Tue 12:04:55 PM 34.0500 -83.7667 270° West 162 186 3,500 -450 Descending Atlanta TRACON
Tue 12:05:55 PM 34.0333 -83.8167 248° West 160 184 3,000 -350 Descending Atlanta TRACON
Tue 12:06:55 PM 34.0167 -83.8500 239° Southwest 110 127 2,800 -300 Descending Atlanta TRACON
Tue 12:07:55 PM 34.0167 -83.8833 270° West 88 101 2,400 -450 Descending Atlanta TRACON
Tue 12:08:55 PM 34.0000 -83.9167 239° Southwest 100 115 1,900 -526 Descending Atlanta TRACON
Tue 12:09:49 PM 33.9833 -83.9333 220° Southwest 97 112 1,400 -556 Descending Atlanta TRACON
Tue 12:11:00 PM 33.9667 -83.9500 239° Southwest  Level FlightAware Approximate
Tue 12:18:00 PM 33.9781 -83.9624 239° Southwest  Level Estimated

Login

Don't have an account? Register now (free) for customized features, flight alerts, and more!